메인 페이지
METAR-TAF:

METAR-TAF

공항 :

헬싱키 반타 국제공항

헬싱키, 핀란드

위도: 60-19N, 경도: 024-58E, 고도: 51m

현재 날씨관측

예보는 17분 전, 04:20시(UTC)에 발표되었습니다.
북동3kt
온도 14°C
습도 67%
기압 1025 hPa
시정 10km 이상
1500m 미만 상공 구름 및 적란운 없음

METAR: EFHK 220420Z 05003KT CAVOK 14/08 Q1025 NOSIG

시각: 07:37 (04:37 UTC)

예보

예보는 2 시간 8분 전, 02:29시(UTC)에 발표되었습니다.
예보 대상 시간: 22일 03시부터 23일 03시까지 (UTC)
북동2kt
시정 10km 이상
1500m 미만 상공 구름 및 적란운 없음
전환 중
22일 08시부터 22일 10시까지 (UTC)
남동10kt
전환 중
22일 20시부터 22일 22시까지 (UTC)
여러 방향의 바람 2kt

TAF: EFHK 220229Z 2203/2303 05002KT CAVOK BECMG 2208/2210 13010KT BECMG 2220/2222 VRB02KT

4,000개 이상의 공항 관측 자료 및 예보 (METAR 및 TAF 보고).

지도상에서 검색 가능한 기상관측소가 노란 점과 빨간 점으로 표시되어 있습니다.

기상관측소 명을 보려면 표시 위로 마우스를 이동하세요.

날씨 관측과 예보를 보려면 클릭하세요.

지도 변경 : 확대하려면 엑스 표시가 있는 녹색 버튼, 축소하려면 빼기 표시가 있는 녹색 버튼, 다음 페이지의 지도를 보려면 녹색 화살표를 클릭하세요.


METAR-TAF: